LDDULYBE

Guest
Details From LDDU - Dubrovnik
To LYBE - Belgrade
Flight Number -
Tags Generated
Created
Modified
Stats Distance 162 nm / 300 km
Max Altitude 0 ft / 0 m
Waypoints 2
Social Downloads 2
Likes 0
Share VATSIM

Download

Looking for another format? Having issues loading an existing format? Contact us
Advertisement - Login to hide

Notes

Generated

Route

LDDU LYBE

ID Type Via Altitude Latitude Longitude Leg Dist Tot Dist Heading (true) Name
O LDDU APT - 0 ft / 0 m 42.56986˚ 18.24681˚ - 0 nm - -
O LYBE APT - 0 ft / 0 m 44.82652˚ 20.29097˚ 161 nm 161 nm 33° / 34° -

Altitude Profile

Advertisement - Login to hide

Weather


0- 5 10 15 20 25 30 35+ Temperature / ° C

Clouds and Precipitation
Forecast for 2018-05-26 12:00 UTC. Updated 5 hours ago

Ground ~20,000 ft ~40,000 ft Winds

LDDU

Details ICAO LDDU (DBV)
Name DUBROVNIK
Region Croatia
Timezone Europe/Zagreb (UTC+2.0)
Stats Elevation 527 ft / 161 m (AMSL)
Location 42.562840° 18.264499°
Runways 1
Magnetic Variation 4.147° E

METAR

LDDU 261600Z 28005KT 240V320 9999 FEW078 26/18 Q1017 NOSIG

Decode

TAF

TAF LDDU 261125Z 2612/2712 29008KT 9999 FEW040 TX27/2612Z TN22/2704Z TEMPO 2613/2617 FEW035TCU BECMG 2618/2620 05007KT BECMG 2709/2711 26008KT

Decode

Departure Runways

ID Width Length Bearing (true) Bearing (mag) Surface Threshold Offset Overrun Length
12 148 ft / 45 m 10,803 ft / 3,293 m 118.30° 114.15° Asphalt 488 ft / 149 m 100 ft / 30 m
30 148 ft / 45 m 10,803 ft / 3,293 m 298.33° 294.18° Asphalt 0 ft / 0 m 100 ft / 30 m

LYBE

Details ICAO LYBE (BEG)
Name Belgrade
Region Serbia and Montenegro
Timezone Europe/Belgrade (UTC+2.0)
Stats Elevation 335 ft / 102 m (AMSL)
Location 44.818429° 20.309211°
Runways 1
Magnetic Variation 4.720° E

METAR

LYBE 261600Z 36008KT 320V020 9999 FEW033TCU SCT040 27/16 Q1019 TEMPO 18010G20KT 5000 TSRA SCT033CB BKN040

Decode

TAF

TAF LYBE 261100Z 2612/2712 03005KT 9999 SCT040 TX27/2712Z TN15/2703Z TEMPO 2612/2618 VRB015KT 3000 TSRA SCT033CB BKN040

Decode

Destination Runways

ID Width Length Bearing (true) Bearing (mag) Surface Threshold Offset Overrun Length
12 148 ft / 45 m 11,138 ft / 3,395 m 122.00° 117.28° Asphalt 1,000 ft / 305 m 0 ft / 0 m
30 148 ft / 45 m 11,138 ft / 3,395 m 302.03° 297.31° Asphalt 1,312 ft / 400 m 0 ft / 0 m

Approach Navaids

Runway Type Ident Frequency Range Bearing (true) Bearing (mag) Slope Elevation
12 Localiser YUB 110.30 MHz 25 nm / 46 km 121.92° 117.20° - 315 ft / 96 m (AMSL)
12 Glidescope YUB 110.30 MHz 25 nm / 46 km 121.92° 117.20° 3.00° 305 ft / 93 m (AMSL)
30 Localiser YBE 109.90 MHz 25 nm / 46 km 301.94° 297.22° - 298 ft / 91 m (AMSL)
30 Glidescope YBE 109.90 MHz 25 nm / 46 km 301.94° 297.22° 3.00° 328 ft / 100 m (AMSL)

Popular Alternatives